Time;durP1;ratioP1;P1;durP2;ratioP2;P2;SDS_P1;SDS_P2;PMS_P1;PMS_P2;Temp;Humidity;BMP_temperature;BMP_pressure;BME280_temperature;BME280_humidity;BME280_pressure;Samples;Min_cycle;Max_cycle;Signal;HPM_P1;HPM_P2
2023/01/22 00:01:16;;;;;;;12.55;9.40;;;0.60;99.90;;;;;;5106716;28;20390;-69
2023/01/22 00:03:42;;;;;;;13.77;8.93;;;0.60;99.90;;;;;;5104920;28;20039;-69
2023/01/22 00:06:10;;;;;;;13.23;9.20;;;0.60;99.90;;;;;;5105610;28;20097;-70
2023/01/22 00:08:36;;;;;;;14.40;9.85;;;0.60;99.90;;;;;;5088889;28;20051;-69
2023/01/22 00:11:03;;;;;;;18.42;11.63;;;0.70;99.90;;;;;;5104341;28;20081;-68
2023/01/22 00:13:29;;;;;;;15.77;10.80;;;0.60;99.90;;;;;;5106823;28;20048;-68
2023/01/22 00:15:59;;;;;;;17.67;12.13;;;0.90;99.90;;;;;;5088414;28;20047;-69
2023/01/22 00:18:25;;;;;;;19.75;12.88;;;0.50;99.90;;;;;;5106556;28;20136;-69
2023/01/22 00:20:53;;;;;;;21.45;13.18;;;0.50;99.90;;;;;;5088810;28;20127;-71
2023/01/22 00:23:19;;;;;;;17.05;12.48;;;0.40;99.90;;;;;;5104666;28;20032;-69
2023/01/22 00:25:45;;;;;;;22.45;13.60;;;0.40;99.90;;;;;;5106586;28;20456;-69
2023/01/22 00:28:11;;;;;;;20.80;13.45;;;0.20;99.90;;;;;;5105474;28;20071;-69
2023/01/22 00:30:37;;;;;;;24.27;14.05;;;0.40;99.90;;;;;;5089342;28;20393;-68
2023/01/22 00:33:03;;;;;;;20.70;13.43;;;0.30;99.90;;;;;;5110047;28;20054;-69
2023/01/22 00:35:30;;;;;;;28.40;14.45;;;0.30;99.90;;;;;;5075626;28;20051;-69
2023/01/22 00:37:56;;;;;;;19.55;13.85;;;0.30;99.90;;;;;;5109451;28;20056;-67
2023/01/22 00:40:22;;;;;;;23.00;14.63;;;0.20;99.90;;;;;;5106507;28;20070;-70
2023/01/22 00:42:47;;;;;;;23.10;15.55;;;0.40;99.90;;;;;;5092275;28;20118;-71
2023/01/22 00:45:13;;;;;;;22.75;14.73;;;0.20;99.90;;;;;;5112207;28;20616;-69
2023/01/22 00:47:39;;;;;;;23.65;15.20;;;0.20;99.90;;;;;;5111083;28;20503;-69
2023/01/22 00:50:06;;;;;;;23.13;15.93;;;0.20;99.90;;;;;;5111654;28;20493;-70
2023/01/22 00:52:32;;;;;;;24.73;15.57;;;0.20;99.90;;;;;;5111708;28;20391;-68
2023/01/22 00:54:57;;;;;;;21.63;14.88;;;0.20;99.90;;;;;;5111941;28;20047;-69
2023/01/22 00:57:23;;;;;;;25.42;15.88;;;0.20;99.90;;;;;;5093829;28;20500;-68
2023/01/22 00:59:51;;;;;;;22.42;15.38;;;0.20;99.90;;;;;;5112068;28;20401;-70
2023/01/22 01:02:17;;;;;;;23.85;16.05;;;0.30;99.90;;;;;;5106726;28;20044;-68
2023/01/22 01:04:43;;;;;;;24.83;16.25;;;0.40;99.90;;;;;;5106121;28;20043;-68
2023/01/22 01:07:08;;;;;;;25.20;15.25;;;0.30;99.90;;;;;;5111975;28;20373;-68
2023/01/22 01:09:34;;;;;;;23.27;15.20;;;0.30;99.90;;;;;;5093654;28;20397;-68
2023/01/22 01:12:00;;;;;;;22.88;15.45;;;0.20;99.90;;;;;;5108654;28;20100;-68
2023/01/22 01:14:26;;;;;;;25.35;16.77;;;0.30;99.90;;;;;;5091342;28;20055;-68
2023/01/22 01:16:52;;;;;;;21.33;15.13;;;0.80;99.90;;;;;;5086057;28;20473;-68
2023/01/22 01:19:22;;;;;;;24.75;15.27;;;0.30;99.90;;;;;;5089036;28;20051;-69
2023/01/22 01:21:47;;;;;;;22.20;14.07;;;0.30;99.90;;;;;;5100200;28;20466;-68
2023/01/22 01:24:13;;;;;;;25.90;15.95;;;0.30;99.90;;;;;;5105236;28;20040;-69
2023/01/22 01:26:40;;;;;;;22.17;14.93;;;0.30;99.90;;;;;;5070872;28;20370;-68
2023/01/22 01:29:08;;;;;;;21.08;14.98;;;0.30;99.90;;;;;;5063687;28;20124;-69
2023/01/22 01:31:35;;;;;;;23.05;15.13;;;0.90;99.90;;;;;;5086080;28;20123;-69
2023/01/22 01:34:02;;;;;;;21.48;15.73;;;0.90;99.90;;;;;;5083665;28;20052;-69
2023/01/22 01:36:28;;;;;;;24.15;16.67;;;0.90;99.90;;;;;;5111376;28;20119;-69
2023/01/22 01:38:54;;;;;;;26.08;16.55;;;0.40;99.90;;;;;;5097270;28;20052;-69
2023/01/22 01:41:23;;;;;;;22.33;15.70;;;0.30;99.90;;;;;;5080182;28;20035;-69
2023/01/22 01:44:08;;;;;;;22.38;15.48;;;0.30;99.90;;;;;;5090078;28;20512;-70
2023/01/22 01:46:39;;;;;;;22.90;15.32;;;0.30;99.90;;;;;;5112588;28;20046;-69
2023/01/22 01:49:08;;;;;;;26.33;15.82;;;0.30;99.90;;;;;;5111712;28;20044;-69
2023/01/22 01:51:35;;;;;;;22.33;15.32;;;0.70;99.90;;;;;;5105989;28;20051;-69
2023/01/22 01:54:03;;;;;;;22.95;14.75;;;0.30;99.90;;;;;;5093310;28;20040;-70
2023/01/22 01:56:35;;;;;;;20.48;14.38;;;0.30;99.90;;;;;;5107502;28;20082;-69
2023/01/22 01:59:08;;;;;;;23.27;16.27;;;0.30;99.90;;;;;;5111840;28;20055;-69
2023/01/22 02:01:35;;;;;;;27.15;15.80;;;0.30;99.90;;;;;;5080068;28;20101;-68
2023/01/22 02:04:01;;;;;;;19.92;14.48;;;0.30;99.90;;;;;;5067176;28;20051;-69
2023/01/22 02:06:27;;;;;;;22.60;15.85;;;0.30;99.90;;;;;;5104923;28;20048;-69
2023/01/22 02:08:54;;;;;;;22.05;15.48;;;0.40;99.90;;;;;;5099756;28;20511;-69
2023/01/22 02:11:21;;;;;;;21.60;14.90;;;0.30;99.90;;;;;;5101864;28;20177;-69
2023/01/22 02:13:54;;;;;;;22.10;15.73;;;0.80;99.90;;;;;;5081096;28;20385;-69
2023/01/22 02:16:20;;;;;;;24.10;15.13;;;0.20;99.90;;;;;;5097286;28;20052;-68
2023/01/22 02:18:46;;;;;;;22.42;14.80;;;0.30;99.90;;;;;;5073753;28;20504;-69
2023/01/22 02:21:37;;;;;;;21.17;14.35;;;0.40;99.90;;;;;;5085873;28;20109;-68
2023/01/22 02:24:11;;;;;;;21.08;15.07;;;0.30;99.90;;;;;;5105317;28;20181;-69
2023/01/22 02:26:38;;;;;;;21.35;15.27;;;0.30;99.90;;;;;;5112002;28;20052;-69
2023/01/22 02:29:06;;;;;;;23.98;15.90;;;0.30;99.90;;;;;;5108337;28;20513;-68
2023/01/22 02:31:33;;;;;;;22.48;15.35;;;0.90;99.90;;;;;;5095556;28;20059;-69
2023/01/22 02:34:02;;;;;;;22.75;15.05;;;0.30;99.90;;;;;;5104789;28;20044;-70
2023/01/22 02:36:33;;;;;;;23.38;15.50;;;0.90;99.90;;;;;;5111079;28;20047;-69
2023/01/22 02:38:59;;;;;;;19.92;13.68;;;0.30;99.90;;;;;;5090033;28;20054;-68
2023/01/22 02:41:26;;;;;;;20.88;13.18;;;0.30;99.90;;;;;;5088479;28;20055;-68
2023/01/22 02:43:51;;;;;;;20.27;12.80;;;0.40;99.90;;;;;;5091721;28;20055;-68
2023/01/22 02:46:17;;;;;;;17.75;11.88;;;0.60;99.90;;;;;;5087624;28;20096;-69
2023/01/22 02:48:43;;;;;;;17.65;12.63;;;0.40;99.90;;;;;;5104249;28;20083;-68
2023/01/22 02:51:08;;;;;;;19.92;11.82;;;0.40;99.90;;;;;;5110553;28;20040;-68
2023/01/22 02:53:34;;;;;;;15.45;11.38;;;0.40;99.90;;;;;;5105806;28;20036;-68
2023/01/22 02:56:05;;;;;;;21.35;11.98;;;1.60;99.90;;;;;;5091053;28;20485;-68
2023/01/22 02:58:31;;;;;;;16.30;9.73;;;0.40;99.90;;;;;;5111000;28;20123;-69
2023/01/22 03:00:56;;;;;;;15.85;9.73;;;0.60;99.90;;;;;;5093045;28;20071;-69
2023/01/22 03:03:22;;;;;;;17.95;10.27;;;0.40;99.90;;;;;;5092020;28;20055;-68
2023/01/22 03:05:50;;;;;;;17.65;10.00;;;1.00;99.90;;;;;;5090927;28;20047;-69
2023/01/22 03:08:17;;;;;;;12.18;8.30;;;0.40;99.90;;;;;;5088671;28;20040;-69
2023/01/22 03:10:43;;;;;;;14.82;8.65;;;0.40;99.90;;;;;;5111050;28;20073;-69
2023/01/22 03:21:22;;;;;;;12.30;7.63;;;0.40;99.90;;;;;;5110339;28;20508;-69
2023/01/22 03:23:50;;;;;;;14.32;7.10;;;0.50;99.90;;;;;;5085929;28;20133;-69
2023/01/22 03:26:17;;;;;;;12.15;7.53;;;0.40;99.90;;;;;;5087305;28;20154;-71
2023/01/22 03:28:44;;;;;;;12.27;6.63;;;0.40;99.90;;;;;;5091280;28;20097;-69
2023/01/22 03:31:10;;;;;;;8.68;6.78;;;0.40;99.90;;;;;;5090973;28;20070;-69
2023/01/22 03:33:36;;;;;;;11.63;6.72;;;0.40;99.90;;;;;;5098883;28;20115;-69
2023/01/22 03:36:05;;;;;;;8.55;6.10;;;0.40;99.90;;;;;;5108048;28;20453;-69
2023/01/22 03:38:31;;;;;;;12.85;6.35;;;0.40;99.90;;;;;;5095306;28;20496;-69
2023/01/22 03:41:07;;;;;;;11.07;5.82;;;0.40;99.90;;;;;;5106838;28;20047;-69
2023/01/22 03:43:34;;;;;;;10.18;6.30;;;0.50;99.90;;;;;;5104709;28;20047;-69
2023/01/22 03:46:06;;;;;;;10.23;5.65;;;0.50;99.90;;;;;;5104633;28;20047;-68
2023/01/22 03:48:32;;;;;;;11.82;6.30;;;0.50;99.90;;;;;;5091628;28;20043;-68
2023/01/22 03:51:14;;;;;;;10.82;6.20;;;0.50;99.90;;;;;;5105184;28;20451;-69
2023/01/22 03:53:41;;;;;;;10.70;6.00;;;0.60;99.90;;;;;;5091032;28;20047;-69
2023/01/22 03:56:13;;;;;;;10.60;5.75;;;0.60;99.90;;;;;;5097059;28;20129;-69
2023/01/22 03:58:39;;;;;;;8.05;5.70;;;0.60;99.90;;;;;;5109743;28;20104;-69
2023/01/22 04:01:15;;;;;;;9.18;5.53;;;1.20;99.90;;;;;;5107667;28;20051;-69
2023/01/22 04:03:41;;;;;;;10.02;6.15;;;0.70;99.90;;;;;;5097285;28;20036;-69
2023/01/22 04:06:09;;;;;;;8.60;5.75;;;0.70;99.90;;;;;;5085696;28;20131;-70
2023/01/22 04:08:36;;;;;;;7.97;5.60;;;0.70;99.90;;;;;;5110525;28;20097;-69
2023/01/22 04:11:02;;;;;;;9.25;5.88;;;0.80;99.90;;;;;;5102581;28;20048;-68
2023/01/22 04:13:30;;;;;;;9.95;6.38;;;0.90;99.90;;;;;;5093572;28;20051;-68
2023/01/22 04:15:56;;;;;;;11.77;6.50;;;0.80;99.90;;;;;;5103967;28;20055;-69
2023/01/22 04:18:22;;;;;;;8.32;5.93;;;0.70;99.90;;;;;;5110134;28;20447;-71
2023/01/22 04:20:49;;;;;;;9.25;6.07;;;0.70;99.90;;;;;;5063479;28;20039;-68
2023/01/22 04:23:15;;;;;;;9.13;5.88;;;0.70;99.90;;;;;;5101453;28;20146;-69
2023/01/22 04:25:42;;;;;;;9.27;6.20;;;1.00;99.90;;;;;;5113820;28;20126;-69
2023/01/22 04:28:09;;;;;;;9.90;6.78;;;0.80;99.90;;;;;;5114330;28;20048;-69
2023/01/22 04:30:36;;;;;;;8.60;6.00;;;0.80;99.90;;;;;;5104869;28;20110;-70
2023/01/22 04:33:02;;;;;;;8.45;6.38;;;0.90;99.90;;;;;;5082585;28;20048;-69
2023/01/22 04:35:29;;;;;;;13.35;6.40;;;0.80;99.90;;;;;;5101123;28;20050;-69
2023/01/22 04:37:55;;;;;;;7.85;5.80;;;0.90;99.90;;;;;;5112680;28;20050;-69
2023/01/22 04:40:20;;;;;;;11.40;6.43;;;0.90;99.90;;;;;;5095528;28;20447;-69
2023/01/22 04:42:46;;;;;;;11.40;6.65;;;0.80;99.90;;;;;;5098856;28;21290;-68
2023/01/22 04:45:12;;;;;;;12.80;6.43;;;1.10;99.90;;;;;;5104182;28;20475;-69
2023/01/22 04:47:41;;;;;;;10.57;6.28;;;0.90;99.90;;;;;;5106614;28;20043;-69
2023/01/22 04:50:08;;;;;;;11.27;6.78;;;0.90;99.90;;;;;;5101220;28;20047;-69
2023/01/22 04:52:33;;;;;;;9.07;6.50;;;0.90;99.90;;;;;;5095609;28;20090;-69
2023/01/22 04:54:59;;;;;;;10.73;6.60;;;0.90;99.90;;;;;;5106948;28;20043;-70
2023/01/22 04:57:25;;;;;;;10.30;6.53;;;1.00;99.90;;;;;;5083934;28;20040;-69
2023/01/22 04:59:50;;;;;;;11.20;6.22;;;0.90;99.90;;;;;;5110312;28;20039;-70
2023/01/22 05:02:16;;;;;;;12.32;6.90;;;0.90;99.90;;;;;;5094673;28;20048;-70
2023/01/22 05:04:42;;;;;;;12.10;6.57;;;0.90;99.90;;;;;;5092452;28;20512;-69
2023/01/22 05:07:07;;;;;;;10.98;6.40;;;1.00;99.90;;;;;;5102638;28;20051;-68
2023/01/22 05:09:33;;;;;;;7.95;5.47;;;1.00;99.90;;;;;;5113013;28;20072;-69
2023/01/22 05:11:59;;;;;;;10.02;6.10;;;1.00;99.90;;;;;;5090753;28;20047;-69
2023/01/22 05:14:25;;;;;;;7.25;5.90;;;1.00;99.90;;;;;;5101978;28;20051;-69
2023/01/22 05:16:51;;;;;;;7.50;6.22;;;1.00;99.90;;;;;;5092116;28;20131;-69
2023/01/22 05:19:16;;;;;;;8.10;5.72;;;1.00;99.90;;;;;;5112656;28;20051;-69
2023/01/22 05:21:42;;;;;;;9.38;5.75;;;1.00;99.90;;;;;;5076258;28;20040;-69
2023/01/22 05:24:08;;;;;;;9.13;5.82;;;1.00;99.90;;;;;;5090842;28;20055;-69
2023/01/22 05:26:34;;;;;;;8.48;5.78;;;1.00;99.90;;;;;;5106166;28;20063;-68
2023/01/22 05:29:00;;;;;;;9.98;5.55;;;1.00;99.90;;;;;;5113298;28;20400;-69
2023/01/22 05:31:25;;;;;;;10.75;5.65;;;1.00;99.90;;;;;;5098556;28;20436;-69
2023/01/22 05:33:51;;;;;;;9.40;5.57;;;1.00;99.90;;;;;;5087721;28;20122;-68
2023/01/22 05:36:17;;;;;;;9.80;6.20;;;1.00;99.90;;;;;;5103471;28;20425;-68
2023/01/22 05:38:42;;;;;;;9.00;5.70;;;1.20;99.90;;;;;;5085784;28;20086;-69
2023/01/22 05:41:08;;;;;;;10.50;5.95;;;0.90;99.90;;;;;;5105218;28;20040;-69
2023/01/22 05:43:37;;;;;;;8.65;5.93;;;1.00;99.90;;;;;;5101908;28;20039;-71
2023/01/22 05:46:03;;;;;;;12.15;6.68;;;1.00;99.90;;;;;;5097494;28;20086;-69
2023/01/22 05:48:31;;;;;;;10.32;6.68;;;1.00;99.90;;;;;;5086137;28;20039;-69
2023/01/22 05:51:00;;;;;;;9.00;6.32;;;0.90;99.90;;;;;;5087408;28;20083;-69
2023/01/22 05:53:26;;;;;;;12.77;6.38;;;0.90;99.90;;;;;;5106629;28;20190;-68
2023/01/22 05:55:51;;;;;;;9.45;5.78;;;2.00;99.90;;;;;;5110285;28;20148;-69
2023/01/22 05:58:17;;;;;;;8.10;5.65;;;1.30;99.90;;;;;;5086758;28;20086;-69
2023/01/22 06:00:43;;;;;;;10.95;6.22;;;0.90;99.90;;;;;;5101773;28;20089;-69
2023/01/22 06:03:08;;;;;;;8.60;5.57;;;0.90;99.90;;;;;;5105753;28;20053;-69
2023/01/22 06:05:34;;;;;;;10.88;5.57;;;0.90;99.90;;;;;;5091927;28;20032;-69
2023/01/22 06:08:00;;;;;;;8.10;5.70;;;0.90;99.90;;;;;;5089580;28;20056;-70
2023/01/22 06:10:25;;;;;;;7.45;5.30;;;0.90;99.90;;;;;;5059507;28;20152;-70
2023/01/22 06:12:51;;;;;;;8.30;5.18;;;0.90;99.90;;;;;;5109600;28;20048;-70
2023/01/22 06:15:17;;;;;;;9.57;5.57;;;0.90;99.90;;;;;;5090246;28;20046;-68
2023/01/22 06:17:43;;;;;;;7.18;5.40;;;0.90;99.90;;;;;;5089896;28;20044;-69
2023/01/22 06:20:09;;;;;;;9.27;5.60;;;0.90;99.90;;;;;;5108563;28;20085;-69
2023/01/22 06:22:35;;;;;;;10.98;5.35;;;0.90;99.90;;;;;;5093066;28;20055;-69
2023/01/22 06:25:00;;;;;;;9.95;5.78;;;0.90;99.90;;;;;;5071173;28;20444;-68
2023/01/22 06:27:26;;;;;;;9.20;6.00;;;0.90;99.90;;;;;;5093204;28;20197;-69
2023/01/22 06:29:52;;;;;;;9.23;5.93;;;0.90;99.90;;;;;;5102294;28;20051;-69
2023/01/22 06:32:17;;;;;;;10.68;5.85;;;0.80;99.90;;;;;;5110984;28;20050;-70
2023/01/22 06:34:43;;;;;;;8.73;5.47;;;0.90;99.90;;;;;;5090627;28;20055;-70
2023/01/22 06:37:09;;;;;;;12.73;6.57;;;0.90;99.90;;;;;;5093240;28;20177;-69
2023/01/22 06:39:34;;;;;;;7.85;5.82;;;0.80;99.90;;;;;;5072672;28;20047;-69
2023/01/22 06:42:00;;;;;;;13.40;6.82;;;0.80;99.90;;;;;;5111034;28;20043;-68
2023/01/22 06:44:26;;;;;;;10.50;6.07;;;0.80;99.90;;;;;;5103782;28;20040;-69
2023/01/22 06:46:51;;;;;;;8.27;6.55;;;0.80;99.90;;;;;;5104308;28;20503;-69
2023/01/22 06:49:17;;;;;;;10.38;6.90;;;1.20;99.90;;;;;;5110072;28;20135;-69
2023/01/22 06:51:43;;;;;;;10.35;7.20;;;0.80;99.90;;;;;;5092471;28;20040;-71
2023/01/22 06:54:11;;;;;;;9.15;6.72;;;0.80;99.90;;;;;;5096343;28;20125;-68
2023/01/22 06:56:36;;;;;;;8.43;6.88;;;0.80;99.90;;;;;;5101417;28;20457;-68
2023/01/22 06:59:02;;;;;;;9.63;7.00;;;0.80;99.90;;;;;;5092082;28;20143;-69
2023/01/22 07:01:28;;;;;;;10.23;7.28;;;1.20;99.90;;;;;;5080348;28;20043;-71
2023/01/22 07:03:55;;;;;;;10.27;6.85;;;0.70;99.90;;;;;;5110272;28;20071;-69
2023/01/22 07:06:20;;;;;;;12.18;7.97;;;0.80;99.90;;;;;;5080810;28;20051;-69
2023/01/22 07:08:46;;;;;;;9.10;6.97;;;0.70;99.90;;;;;;5067525;28;20078;-70
2023/01/22 07:11:14;;;;;;;11.10;8.20;;;0.70;99.90;;;;;;5107026;28;20040;-69
2023/01/22 07:13:40;;;;;;;12.35;8.07;;;1.30;99.90;;;;;;5100875;28;20043;-69
2023/01/22 07:16:06;;;;;;;12.38;8.32;;;0.70;99.90;;;;;;5106699;28;20476;-68
2023/01/22 07:18:32;;;;;;;10.52;7.55;;;0.70;99.90;;;;;;5046966;28;20114;-69
2023/01/22 07:21:01;;;;;;;9.40;8.00;;;0.80;99.90;;;;;;5107130;28;20051;-68
2023/01/22 07:23:28;;;;;;;9.50;7.70;;;0.60;99.90;;;;;;5100638;28;20057;-68
2023/01/22 07:25:53;;;;;;;9.25;7.57;;;0.60;99.90;;;;;;5074828;28;20069;-68
2023/01/22 07:28:19;;;;;;;10.77;7.60;;;0.60;99.90;;;;;;5104088;28;20043;-68
2023/01/22 07:30:45;;;;;;;9.38;7.80;;;0.60;99.90;;;;;;5062376;28;20083;-68
2023/01/22 07:33:12;;;;;;;10.77;8.05;;;0.60;99.90;;;;;;5088960;28;20058;-68
2023/01/22 07:35:38;;;;;;;9.65;7.63;;;0.60;99.90;;;;;;5104758;28;20065;-69
2023/01/22 07:38:04;;;;;;;10.75;7.93;;;0.60;99.90;;;;;;5078342;28;20052;-68
2023/01/22 07:40:30;;;;;;;10.35;8.55;;;0.60;99.90;;;;;;5102245;28;20046;-68
2023/01/22 07:42:56;;;;;;;10.50;8.52;;;0.60;99.90;;;;;;5091202;28;20077;-69
2023/01/22 07:45:23;;;;;;;11.35;8.43;;;0.50;99.90;;;;;;5114091;28;20089;-69
2023/01/22 07:47:53;;;;;;;15.25;8.80;;;0.60;99.90;;;;;;5113940;28;20051;-71
2023/01/22 07:50:22;;;;;;;12.15;8.65;;;0.50;99.90;;;;;;5096723;28;20056;-69
2023/01/22 07:52:48;;;;;;;10.00;8.65;;;0.60;99.90;;;;;;5085405;28;20378;-69
2023/01/22 07:55:14;;;;;;;11.07;8.68;;;0.70;99.90;;;;;;5102497;28;20054;-69
2023/01/22 07:57:40;;;;;;;11.98;8.88;;;0.50;99.90;;;;;;5094562;28;20052;-69
2023/01/22 08:00:09;;;;;;;12.05;8.57;;;1.10;99.90;;;;;;5114334;28;20046;-69
2023/01/22 08:02:38;;;;;;;14.30;9.18;;;0.50;99.90;;;;;;5075825;28;20526;-69
2023/01/22 08:05:09;;;;;;;10.40;9.13;;;0.50;99.90;;;;;;5094900;28;20051;-69
2023/01/22 08:07:35;;;;;;;12.55;8.90;;;0.50;99.90;;;;;;5107338;28;20048;-68
2023/01/22 08:10:01;;;;;;;17.13;8.70;;;0.50;99.90;;;;;;5112877;28;20126;-68
2023/01/22 08:12:27;;;;;;;11.60;8.50;;;0.50;99.90;;;;;;5113061;28;20056;-68
2023/01/22 08:14:53;;;;;;;10.10;8.50;;;0.50;99.90;;;;;;5109782;28;20035;-69
2023/01/22 08:17:18;;;;;;;11.35;8.02;;;0.50;99.90;;;;;;5114160;28;20047;-69
2023/01/22 08:19:44;;;;;;;10.20;8.88;;;0.50;99.90;;;;;;5101204;28;20036;-68
2023/01/22 08:22:10;;;;;;;12.85;8.80;;;0.50;99.90;;;;;;5113209;28;20112;-68
2023/01/22 08:24:35;;;;;;;10.40;8.38;;;0.60;99.90;;;;;;5095599;28;20050;-69
2023/01/22 08:27:01;;;;;;;11.25;8.20;;;0.50;99.90;;;;;;5092195;28;20375;-69
2023/01/22 08:29:27;;;;;;;9.13;7.28;;;0.40;99.90;;;;;;5113344;28;20047;-67
2023/01/22 08:31:53;;;;;;;10.00;7.35;;;0.40;99.90;;;;;;5103311;28;20080;-68
2023/01/22 08:34:20;;;;;;;11.70;8.02;;;0.40;99.90;;;;;;5106905;28;20393;-67
2023/01/22 08:36:46;;;;;;;11.45;7.28;;;0.50;99.90;;;;;;5103588;28;20047;-67
2023/01/22 08:39:12;;;;;;;9.65;7.00;;;0.50;99.90;;;;;;5078423;28;20078;-67
2023/01/22 08:41:39;;;;;;;9.80;7.88;;;0.50;99.90;;;;;;5100117;28;20119;-67
2023/01/22 08:44:05;;;;;;;14.38;8.48;;;0.40;99.90;;;;;;5093056;28;20073;-68
2023/01/22 08:46:31;;;;;;;10.38;8.48;;;0.40;99.90;;;;;;5067787;28;20134;-68
2023/01/22 08:48:57;;;;;;;10.98;8.13;;;0.50;99.90;;;;;;5113859;28;20071;-69
2023/01/22 08:51:23;;;;;;;11.60;8.95;;;0.40;99.90;;;;;;5056789;28;20051;-68
2023/01/22 08:53:50;;;;;;;10.70;7.50;;;0.40;99.90;;;;;;5113613;28;20082;-68
2023/01/22 08:56:15;;;;;;;10.02;7.13;;;0.50;99.90;;;;;;5111897;28;20043;-68
2023/01/22 08:58:41;;;;;;;9.38;7.90;;;0.50;99.90;;;;;;5084246;28;20063;-67
2023/01/22 09:01:12;;;;;;;10.90;7.88;;;0.50;99.90;;;;;;5091713;27;20054;-67
2023/01/22 09:03:38;;;;;;;10.00;8.00;;;0.50;99.90;;;;;;5103362;28;20039;-66
2023/01/22 09:06:03;;;;;;;12.02;8.50;;;0.50;99.90;;;;;;5111824;28;20058;-67
2023/01/22 09:08:30;;;;;;;10.65;7.97;;;0.50;99.90;;;;;;5089159;28;20103;-67
2023/01/22 09:10:56;;;;;;;11.15;8.05;;;0.50;99.90;;;;;;5113280;28;20051;-66
2023/01/22 09:13:21;;;;;;;10.20;8.07;;;0.50;99.90;;;;;;5111264;28;20039;-67
2023/01/22 09:16:09;;;;;;;11.10;7.75;;;0.50;99.90;;;;;;5083882;28;20070;-67
2023/01/22 09:18:36;;;;;;;8.88;7.70;;;0.60;99.90;;;;;;5112964;28;20127;-66
2023/01/22 09:21:03;;;;;;;8.90;7.72;;;0.60;99.90;;;;;;5084694;28;20106;-67
2023/01/22 09:23:28;;;;;;;11.07;7.97;;;0.70;99.90;;;;;;5103530;28;20047;-66
2023/01/22 09:25:54;;;;;;;9.80;7.45;;;0.70;99.90;;;;;;5110917;28;20044;-66
2023/01/22 09:28:20;;;;;;;9.35;7.40;;;1.20;99.90;;;;;;5106285;28;20052;-68
2023/01/22 09:30:46;;;;;;;12.52;7.93;;;0.80;99.90;;;;;;5112886;28;20112;-68
2023/01/22 09:33:11;;;;;;;16.75;8.40;;;0.80;99.90;;;;;;5111578;28;20116;-68
2023/01/22 09:35:37;;;;;;;12.63;7.80;;;0.80;99.90;;;;;;5091148;28;20382;-69
2023/01/22 09:38:04;;;;;;;9.05;7.55;;;0.90;99.90;;;;;;5094967;28;20131;-68
2023/01/22 09:40:57;;;;;;;10.00;7.20;;;0.90;99.90;;;;;;5112852;28;20062;-67
2023/01/22 09:43:26;;;;;;;10.32;6.90;;;1.00;99.90;;;;;;5107709;28;20052;-67
2023/01/22 09:45:57;;;;;;;9.32;6.88;;;1.10;99.90;;;;;;5105965;28;20555;-70
2023/01/22 09:48:33;;;;;;;10.00;6.72;;;1.70;99.90;;;;;;5077229;28;20044;-68
2023/01/22 09:50:59;;;;;;;8.82;7.13;;;1.10;99.90;;;;;;5114502;27;20048;-69
2023/01/22 09:53:25;;;;;;;9.63;6.65;;;1.10;99.90;;;;;;5086105;28;20040;-68
2023/01/22 09:55:53;;;;;;;10.60;7.25;;;1.20;99.90;;;;;;5085517;28;20052;-68
2023/01/22 09:58:24;;;;;;;8.45;7.10;;;1.20;99.90;;;;;;5076807;28;20047;-68
2023/01/22 10:00:54;;;;;;;8.93;7.15;;;2.00;99.90;;;;;;5112101;28;20097;-68
2023/01/22 10:03:30;;;;;;;12.50;7.00;;;1.20;99.90;;;;;;5102662;28;20509;-68
2023/01/22 10:06:01;;;;;;;13.45;7.20;;;1.20;99.90;;;;;;5102892;28;20496;-68
2023/01/22 10:08:38;;;;;;;10.55;6.85;;;2.00;99.90;;;;;;5111915;28;20084;-68
2023/01/22 10:11:07;;;;;;;9.77;7.43;;;1.60;99.90;;;;;;5097949;28;20514;-67
2023/01/22 10:13:36;;;;;;;9.30;7.05;;;1.20;99.90;;;;;;5098339;28;20044;-69
2023/01/22 10:16:02;;;;;;;10.75;6.93;;;1.30;99.90;;;;;;5092805;28;20135;-69
2023/01/22 10:18:59;;;;;;;9.93;7.22;;;1.30;99.90;;;;;;5108570;28;20044;-68
2023/01/22 10:21:38;;;;;;;11.43;7.13;;;1.30;99.90;;;;;;5096901;28;20493;-67
2023/01/22 10:24:04;;;;;;;10.18;6.82;;;1.30;99.90;;;;;;5104617;28;20047;-69
2023/01/22 10:26:38;;;;;;;8.02;6.25;;;1.30;99.90;;;;;;5086520;28;20374;-69
2023/01/22 10:29:31;;;;;;;9.48;6.43;;;1.30;99.90;;;;;;5107772;28;20529;-67
2023/01/22 10:32:14;;;;;;;10.35;6.22;;;1.30;99.90;;;;;;5085732;28;20092;-68
2023/01/22 10:34:40;;;;;;;6.28;5.13;;;1.40;99.90;;;;;;5088944;28;20131;-68
2023/01/22 10:37:17;;;;;;;11.50;6.03;;;1.40;99.90;;;;;;5092076;28;20147;-69
2023/01/22 10:39:46;;;;;;;8.88;5.63;;;1.40;99.90;;;;;;5076114;28;20044;-68
2023/01/22 10:42:19;;;;;;;7.88;5.53;;;1.50;99.90;;;;;;5096263;28;20056;-69
2023/01/22 10:44:45;;;;;;;9.93;5.88;;;1.50;99.90;;;;;;5109097;28;20051;-69
2023/01/22 10:47:21;;;;;;;8.35;5.78;;;1.50;99.90;;;;;;5106701;28;20040;-68
2023/01/22 10:49:48;;;;;;;10.93;6.30;;;2.30;99.90;;;;;;5080178;28;20047;-68
2023/01/22 10:52:31;;;;;;;9.98;6.30;;;1.60;99.90;;;;;;5109323;28;20050;-68
2023/01/22 10:54:58;;;;;;;9.43;6.80;;;1.60;99.90;;;;;;5109814;28;20075;-69
2023/01/22 10:57:34;;;;;;;9.20;6.72;;;1.60;99.90;;;;;;5110984;28;20070;-68
2023/01/22 11:00:06;;;;;;;9.68;6.97;;;1.70;99.90;;;;;;5109441;28;20053;-69
2023/01/22 11:02:33;;;;;;;9.40;6.72;;;1.70;99.90;;;;;;5102158;28;20479;-67
2023/01/22 11:05:18;;;;;;;10.73;6.50;;;1.70;99.90;;;;;;5106295;28;20043;-69
2023/01/22 11:07:46;;;;;;;13.45;7.20;;;1.80;99.90;;;;;;5084889;28;20051;-68
2023/01/22 11:10:23;;;;;;;9.40;6.82;;;2.40;99.90;;;;;;5111062;28;20051;-68
2023/01/22 11:12:56;;;;;;;10.18;7.30;;;1.90;99.90;;;;;;5103960;28;20073;-68
2023/01/22 11:15:56;;;;;;;8.82;6.45;;;1.90;99.90;;;;;;5104611;28;20058;-68
2023/01/22 11:18:44;;;;;;;14.10;7.60;;;1.90;99.90;;;;;;5094640;28;20056;-68
2023/01/22 11:21:15;;;;;;;10.65;6.70;;;1.90;99.90;;;;;;5111405;28;20397;-66
2023/01/22 11:24:00;;;;;;;9.57;7.35;;;2.00;99.90;;;;;;5110603;28;20082;-67
2023/01/22 11:26:37;;;;;;;8.25;6.40;;;2.00;99.90;;;;;;5106191;28;20101;-68
2023/01/22 11:29:26;;;;;;;9.95;6.75;;;2.10;99.90;;;;;;5106256;28;20044;-67
2023/01/22 11:32:11;;;;;;;11.68;6.60;;;2.10;99.90;;;;;;5102294;28;20052;-68
2023/01/22 11:34:55;;;;;;;7.72;6.10;;;2.10;99.90;;;;;;5104782;28;20427;-67
2023/01/22 11:37:39;;;;;;;7.60;6.03;;;2.10;99.90;;;;;;5056299;28;20052;-70
2023/01/22 11:40:26;;;;;;;8.52;6.63;;;2.10;99.90;;;;;;5073491;28;20048;-67
2023/01/22 11:43:10;;;;;;;8.27;6.45;;;2.20;99.90;;;;;;5100573;28;20044;-68
2023/01/22 11:46:01;;;;;;;8.80;6.33;;;2.20;99.90;;;;;;5103085;28;20118;-68
2023/01/22 11:49:13;;;;;;;10.18;6.32;;;2.20;99.90;;;;;;5079633;28;20075;-68
2023/01/22 11:51:51;;;;;;;11.98;6.85;;;2.20;99.90;;;;;;5076998;28;20051;-68
2023/01/22 11:54:40;;;;;;;11.90;6.68;;;2.20;99.90;;;;;;5107104;28;20047;-68
2023/01/22 11:57:27;;;;;;;9.35;6.07;;;2.20;99.90;;;;;;5094499;28;20050;-69
2023/01/22 12:00:30;;;;;;;10.30;6.50;;;2.30;99.90;;;;;;5090699;28;20050;-69
2023/01/22 12:03:33;;;;;;;13.73;6.25;;;2.30;99.90;;;;;;5090157;28;20873;-69
2023/01/22 12:06:36;;;;;;;10.27;6.35;;;2.30;99.90;;;;;;5088686;28;20461;-69
2023/01/22 12:09:30;;;;;;;9.13;6.03;;;2.30;99.90;;;;;;5082274;28;20101;-69
2023/01/22 12:12:21;;;;;;;10.00;5.90;;;2.40;99.90;;;;;;5106637;28;20048;-68
2023/01/22 12:15:19;;;;;;;13.15;6.40;;;2.40;99.90;;;;;;5088486;28;20554;-69
2023/01/22 12:17:51;;;;;;;11.07;6.20;;;2.40;99.90;;;;;;5106119;28;20274;-68
2023/01/22 12:20:55;;;;;;;10.82;6.05;;;2.50;99.90;;;;;;5086114;28;20161;-69
2023/01/22 12:23:34;;;;;;;7.22;5.10;;;2.50;99.90;;;;;;5012901;28;20061;-69
2023/01/22 12:26:22;;;;;;;10.38;6.53;;;2.50;99.90;;;;;;5007110;28;20054;-68
2023/01/22 12:29:08;;;;;;;9.48;5.97;;;2.50;99.90;;;;;;5062527;28;20048;-69
2023/01/22 12:32:03;;;;;;;9.90;6.70;;;2.70;99.90;;;;;;5105104;28;20105;-68
2023/01/22 12:34:39;;;;;;;9.23;6.35;;;2.50;99.90;;;;;;5106780;28;20044;-68
2023/01/22 12:37:06;;;;;;;9.68;5.90;;;2.60;99.90;;;;;;5078566;28;20066;-71
2023/01/22 12:39:47;;;;;;;13.40;5.95;;;2.50;99.90;;;;;;5104861;28;20058;-70
2023/01/22 12:42:31;;;;;;;9.05;6.32;;;2.50;99.90;;;;;;5103097;28;20047;-68
2023/01/22 12:45:16;;;;;;;11.75;5.28;;;2.50;99.90;;;;;;5106073;28;20047;-70
2023/01/22 12:47:44;;;;;;;10.55;6.50;;;2.50;99.90;;;;;;5104944;28;20060;-70
2023/01/22 12:50:19;;;;;;;10.43;5.80;;;2.50;99.90;;;;;;5102466;28;20051;-69
2023/01/22 12:52:46;;;;;;;;;;;2.50;99.90;;;;;;5094387;28;20059;-69
2023/01/22 12:55:41;;;;;;;12.18;5.93;;;2.70;99.90;;;;;;5078044;28;19919;-70
2023/01/22 12:58:25;;;;;;;8.63;6.32;;;2.50;99.90;;;;;;5065049;28;20083;-72
2023/01/22 13:01:20;;;;;;;10.45;6.40;;;2.50;99.90;;;;;;5093014;28;20062;-69
2023/01/22 13:04:03;;;;;;;8.50;5.95;;;2.50;99.90;;;;;;5083796;28;20137;-68
2023/01/22 13:06:38;;;;;;;11.23;6.25;;;2.50;99.90;;;;;;5084637;28;20094;-72
2023/01/22 13:09:06;;;;;;;9.25;6.13;;;2.50;99.90;;;;;;5081941;28;20508;-70
2023/01/22 13:11:34;;;;;;;9.32;5.78;;;2.50;99.90;;;;;;5082793;28;20052;-71